Latest METARs, TAFs and NOTAMs for LIRN


---------------------------------------------------------------------------
	(OBSERVATIONS)
LIRN 300250Z 02006KT CAVOK 12/02 Q1013 NOSIG=
LIRN 300220Z NIL=
LIRN 300150Z 02007KT CAVOK 12/02 Q1013 NOSIG=
LIRN 300120Z 36005KT CAVOK 12/04 Q1013 NOSIG=
LIRN 300050Z 01005KT CAVOK 12/04 Q1013 NOSIG=
LIRN 300020Z 01007KT CAVOK 12/04 Q1013 NOSIG=
---------------------------------------------------------------------------
	(FC)
Sorry, FC For LIRN Not Found
---------------------------------------------------------------------------
	(TERMINAL AREA FORECAST)
LIRN 292300Z 3000/3024 04010KT 9999 SCT025 BECMG 3009/3011
    25012KT=
---------------------------------------------------------------------------
	(NOTAMS)


LIRN A0719/17 PONZA VORTAC 'PNZ' FREQ 114.60MHZ CH 93X AVBL AS
    FLW: - VOR ON TEST DO NOT USE - TACAN OPERATIVE REF AIP AD
    2 LIRN 1-8. 02 FEB 10:04 2017 UNTIL 30 APR 22:59 2017 ESTIMATED.
    CREATED: 02 FEB 10:04 2017

LIRN A0814/16 REF AIP AD 2 LIRN 5-3 AND 5-7 INSTRUMENT APPROACH
    PROCEDURES ILS-Z RWY 24 ILS-W RWY 24 (ATC DISCRETION) MODIFY
    MISSED APPROACH AS FLW: AS SOON AS PRACTICABLE, CLIMBING
    TO 6000FT, TURN LEFT ON TR 180DEG, NOT BEFORE 1.3NM INPL
    DME (2.1NM NPC DME) WITH IAS MAX 180 KT, TO JOIN RDL/QDR
    342 SOR VOR/NDB BOUND TO GEMMA (4000FT MCA) THEN SOR VOR/NDB
    (6000FT). 10 FEB 16:39 2016 UNTIL PERM. CREATED: 10 FEB 16:39
    2016

LIRN A0815/16 REF AIP AD 2 LIRN 5-9 INSTRUMENT APPROACH PROCEDURE
    ILS-V RWY 24 (ATC DISCRETION) MODIFY MISSED APPROACH AS FLW:
    AS SOON AS PRACTICABLE, CLIMBING TO 6000FT, TURN LEFT ON
    TR 180DEG, NOT BEFORE 3.1NM POM DME, PASSING POM DME, WITH
    IAS MAX 180 KT, TO JOIN RDL/QDR 342 SOR VOR/NDB BOUND TO
    GEMMA (4000FT MCA) THEN SOR VOR/NDB (6000FT). 10 FEB 16:40
    2016 UNTIL PERM. CREATED: 10 FEB 16:40 2016

LIRN A0816/16 REF AIP AD 2 LIRN 5-11, 5-15 AND 5-17 INSTRUMENT
    APPROACH PROCEDURES LOC-Z RWY 24 LOC-W RWY 24 (ATC DISCRETION)
    LOC-V RWY 24 (ATC DISCRETION) MODIFY MISSED APPROACH AS FLW:
    ON MAPT CLIMB TO 6000FT AND TURN LEFT ON TR 180DEG (IAS MAX
    180 KT) TO JOIN RDL/QDR 342 SOR VOR/NDB BOUND TO GEMMA (4000FT
    MCA) THEN SOR VOR/NDB (6000FT). 10 FEB 16:42 2016 UNTIL PERM.
    CREATED: 10 FEB 16:42 2016

LIRN A0817/16 REF AIP AD 2 LIRN 5-13 INSTRUMENT APPROACH PROCEDURE
    LOC-Y RWY 24 MODIFY MISSED APPROACH AS FLW: ON MAPT CLIMB
    TO 6000FT AND TURN LEFT ON TR 180DEG (IAS MAX 180 KT) TO
    JOIN RDL/QDR 156 TEA VOR/NDB BOUND TO GEMMA (4000FT MCA)
    THEN PROCEED TO MISSED APPROACH HOLDING PATTERN. HOLD ON
    RDL/QDR 156 TEA VOR/NDB BETWEEN 40NM AND 44NM TEA DME, INBOUND
    TR 336DEG, LEFT TURNS, MHA 6000FT. 10 FEB 16:42 2016 UNTIL
    PERM. CREATED: 10 FEB 16:42 2016

LIRN A0818/16 REF AIP AD 2 LIRN 5-5 INSTRUMENT APPROACH PROCEDURE
    ILS-Y RWY24 MODIFY MISSED APPROACH AS FLW: AS SOON AS PRACTICABLE,
    CLIMBING TO 6000FT, TURN LEFT ON TR 180DEG, NOT BEFORE 1.3NM
    INPL DME (2.1NM NPC DME) WITH IAS MAX 180KT, TO JOIN RDL/QDR
    156 TEA VOR/NDB BOUND TO GEMMA (4000FT MCA) THEN PROCEED
    TO MISSED APPROACH HOLDING PATTERN. HOLD ON RDL/QDR 156 TEA
    VOR/NDB BETWEEN 40NM AND 44NM TEA DME, INBOUND TR 336DEG,
    LEFT TURNS, MHA 6000FT. 10 FEB 16:43 2016 UNTIL PERM. CREATED:
    10 FEB 16:43 2016

LIRN A1210/17 PRECISION APPROACH PATH INDICATOR (PAPI) RWY24
    LEFT SIDE UNSERVICEABLE REF AIP AD 2 LIRN 1-5. 28 FEB 08:01
    2017 UNTIL 25 MAY 23:00 2017 ESTIMATED. CREATED: 28 FEB 08:02
    2017

LIRN A1381/17 NEW OBSTACLE ERECTED CRANE PENETRATING INNER HORIZONTAL
    SURFACE PSN COORD (WGS84)405229.80N 0141708.77E MAX ELEV
    AMSL 123.00M/403.54FT RMK: ICAO SIGNAL PROVIDED REF AOC TYPE
    B NR RN 2/1. 07 MAR 12:35 2017 UNTIL 30 APR 14:00 2017 ESTIMATED.
    CREATED: 07 MAR 12:35 2017

LIRN A1680/17 ALL STOPBARS AND ALL FIXED RED LIGHTS UNSERVICEABLE
    DUE TO TECR REF AIP AD 2 LIRN 2-1. 20 MAR 11:30 2017 UNTIL
    18 MAY 23:59 2017 ESTIMATED. CREATED: 20 MAR 11:30 2017

LIRN A1778/17 TAXIWAY 'M' CLOSED. REF AIP AD 2 LIRN 2-1. 23 MAR
    11:31 2017 UNTIL 21 JUN 04:00 2017 ESTIMATED. CREATED: 23
    MAR 11:31 2017

LIRN A2088/17 TWY 'H' AVBL ONLY FOR MILITARY ACFT. DURING NIGHT
    TIME USE OF FOLLOW-ME IS COMPULSORY. REF AIP AD 2 LIRN 2-1.1.
    05 APR 09:55 2017 UNTIL 31 MAY 14:00 2017 ESTIMATED. CREATED:
    05 APR 09:55 2017

LIRN A2095/17 SUP 6/16 IN FORCE FM 15 SEP 2016 EXPIRY DATE POSTPONED
    TO 31 MAY 2017 EST NAPOLI/CAPODICHINO AD: TWY TN REFURBISHING
    AND NEW TWY P STATUS OF WORKING PHASES: - PHASE 1: ACTIVE
    - PHASE 2: ACTIVE - PHASE 3: SUSPENDED - PHASE 4: NOT ACT
    YET - PHASE 5: NOT ACT YET - PHASE 6: ACTIVE - PHASE 7: ACTIVE
    - PHASE 8: ACTIVE - PHASE 9: ACTIVE - PHASE 10: ACTIVE -
    PHASE 11: NOT ACT YET - PHASE 12: NOT ACT YET REF AIP AD
    2 LIRN 2-1.1/12 AND 2-5.1/12. 05 APR 11:26 2017 UNTIL 31
    MAY 14:00 2017 ESTIMATED. CREATED: 05 APR 11:26 2017

LIRN A2117/17 ALL LIGHTS ON TAXIWAY 'H' UNSERVICEABLE DUE TO
    TECR REF AIP AD 2 LIRN 2-1. 05 APR 15:27 2017 UNTIL 31 MAY
    23:59 2017 ESTIMATED. CREATED: 05 APR 15:27 2017

LIRN A2128/17 TEANO VOR/DME 'TEA' FREQ 112.90MHZ CH 76X REMOTE
    STATUS INDICATOR NOT AVBL REF AIP AD 2 LIRN 1-9. 06 APR 11:18
    2017 UNTIL 02 JUL 23:59 2017 ESTIMATED. CREATED: 06 APR 11:18
    2017

LIRN A2220/17 DME ASSOCIATED WITH ILS RWY24 UNSERVICEABLE DUE
    TO TECR REF AIP AD 2 LIRN 1-7. 11 APR 08:25 2017 UNTIL 06
    JUL 23:59 2017 ESTIMATED. CREATED: 11 APR 08:25 2017

LIRN A2229/17 CIRCLING GUIDANCE LIGHTS (CGL) RWY06 UNSERVICEABLE
    REF AIP AD 2 LIRN 2-1. 11 APR 11:02 2017 UNTIL 06 JUL 23:59
    2017 ESTIMATED. CREATED: 11 APR 11:02 2017

LIRN A2633/17 AERODROME BEACON UNSERVICEABLE DUE TO MAINT REF
    AIP AD 2 LIRN 1-6. 08 MAY 15:00 2017 UNTIL 08 MAY 19:00 2017.
    CREATED: 28 APR 10:55 2017

LIRN A2634/17 INSTRUMENT LANDING SYSTEM (ILS) RWY06 AVAILABILITY
    CANNOT BE GRANTED DUE TO SCHEDULED MAINT ACTIVITY IN PROGRESS.
    INSTRUMENT APPROACH PROCEDURES FOR RWY06 WILL BE AUTHORIZED
    BY ATC ACCORDING TO ACTUAL APPARATUS AVBL. WITH RWY06 IN
    USE AND ILS NOT AVBL, IFR ARR WILL BE INSTRUCTED FOR VOR
    OR CIRCLING PROCEDURE REF AIP AD 2 LIRN 1-7. 19 MAY 00:00
    2017 UNTIL 19 MAY 03:00 2017. CREATED: 28 APR 10:59 2017

LIRN A2635/17 INSTRUMENT LANDING SYSTEM (ILS) RWY24 AVAILABILITY
    CANNOT BE GRANTED DUE TO SCHEDULED MAINT ACTIVITY IN PROGRESS.
    INSTRUMENT APPROACH PROCEDURES FOR RWY24 WILL BE AUTHORIZED
    BY ATC ACCORDING TO ACTUAL APPARATUS AVAILABILITY. WITH RWY24
    IN USE AND ILS NOT AVBL, IFR ARR WILL BE INSTRUCTED FOR CIRCLING
    PROCEDURE. REF AIP AD 2 LIRN 1-7. 17 MAY 00:00 2017 UNTIL
    17 MAY 04:00 2017. CREATED: 28 APR 11:01 2017

LIRN F0015/07 [DEFENSE ENERGY SUPPORT CENTER ADVISORY] FUEL AVAILABILITY
    NOT AVAILABLE PHONE AHEAD FOR FUEL AVAILABILITY. 12 JUL 10:20
    2020 UNTIL 01 AUG 25:20 2020

---------------------------------------------------------------------------